Fillmore, Illinois
Current Conditions -  °F | °C
As of 3:35 AM on Friday 28 Nov 2014 (Local Time) from K3LF Reporting Station
Scattered Clouds Scattered Clouds  
Wind Chill:   Ceiling: Unl
Heat Index: 20°   Visibility: 10mi
Dew Point: 14°   Wind: 9mph
Humidity: 77%   Direction: 140°SE
Pressure: 30.36"   Gusts: NA
Location:  39.12°N, 89.28°W
Report Text: K3LF 280935Z AUTO 14008KT 10SM SCT120 M07/M10 A3036 RMK AO2 T10671102
Loading
Personal Weather Stations






























Interactive Weather Map New forecast layout! Learn more

10-Day Weather Forecast

Advertisements
Track Severe Weather on mobile